createdAt,value
2018-07-13T00:00:35.293Z,96.00
2018-07-13T00:03:04.853Z,95.70
2018-07-13T00:05:34.629Z,95.60
2018-07-13T00:10:33.449Z,95.80
2018-07-13T00:13:03.016Z,95.80
2018-07-13T00:15:33.138Z,95.40
2018-07-13T00:18:02.995Z,95.60
2018-07-13T00:20:33.414Z,95.80
2018-07-13T00:23:04.074Z,95.20
2018-07-13T00:25:34.449Z,95.50
2018-07-13T00:28:04.528Z,95.60
2018-07-13T00:30:34.252Z,95.70
2018-07-13T00:33:03.869Z,95.70
2018-07-13T00:35:34.234Z,95.90
2018-07-13T00:38:03.709Z,95.80
2018-07-13T00:40:34.436Z,96.00
2018-07-13T00:43:05.152Z,96.30
2018-07-13T00:45:35.221Z,96.50
2018-07-13T00:48:05.212Z,96.60
2018-07-13T00:50:34.809Z,96.60
2018-07-13T00:53:04.477Z,96.60
2018-07-13T00:55:34.002Z,96.70
2018-07-13T00:58:03.603Z,96.70
2018-07-13T01:00:33.845Z,96.80
2018-07-13T01:03:04.684Z,96.80
2018-07-13T01:05:35.280Z,97.00
2018-07-13T01:08:05.470Z,97.10
2018-07-13T01:10:35.053Z,97.00
2018-07-13T01:13:05.588Z,97.00
2018-07-13T01:15:35.480Z,97.00
2018-07-13T01:18:05.729Z,97.10
2018-07-13T01:20:35.377Z,97.20
2018-07-13T01:23:05.745Z,97.40
2018-07-13T01:25:36.017Z,97.70
2018-07-13T01:28:06.095Z,97.40
2018-07-13T01:30:36.086Z,97.40
2018-07-13T01:33:06.164Z,97.60
2018-07-13T01:35:36.530Z,97.70
2018-07-13T01:38:06.577Z,97.70
2018-07-13T01:40:36.805Z,97.70
2018-07-13T01:43:06.388Z,97.70
2018-07-13T01:45:37.135Z,97.80
2018-07-13T01:48:08.101Z,97.90
2018-07-13T01:50:38.171Z,98.00
2018-07-13T01:53:08.872Z,98.10
2018-07-13T01:55:38.701Z,98.40
2018-07-13T01:58:08.649Z,98.60
2018-07-13T02:00:39.321Z,98.70
2018-07-13T02:03:08.784Z,98.80
2018-07-13T02:05:38.449Z,98.90
2018-07-13T02:08:08.285Z,98.90
2018-07-13T02:10:38.232Z,98.90
2018-07-13T02:13:08.765Z,99.00
2018-07-13T02:15:38.693Z,99.20
2018-07-13T02:18:09.317Z,99.20
2018-07-13T02:20:39.671Z,99.30
2018-07-13T02:23:09.548Z,99.40
2018-07-13T02:25:39.884Z,99.80
2018-07-13T02:28:09.453Z,99.30
2018-07-13T02:30:39.705Z,99.30
2018-07-13T02:33:09.609Z,99.40
2018-07-13T02:35:40.050Z,99.60
2018-07-13T02:38:10.168Z,99.60
2018-07-13T02:40:39.822Z,99.60
2018-07-13T02:43:09.561Z,99.60
2018-07-13T02:45:40.014Z,99.60
2018-07-13T02:48:09.737Z,99.60
2018-07-13T02:50:40.121Z,99.60
2018-07-13T02:53:10.165Z,99.70
2018-07-13T02:55:39.760Z,99.70
2018-07-13T02:58:09.677Z,99.80
2018-07-13T03:00:40.552Z,99.90
2018-07-13T03:03:11.234Z,99.90
2018-07-13T03:05:41.474Z,99.90
2018-07-13T03:08:11.158Z,99.90
2018-07-13T03:10:40.777Z,99.90
2018-07-13T03:13:11.512Z,99.90
2018-07-13T03:15:41.826Z,99.90
2018-07-13T03:18:11.669Z,99.90
2018-07-13T03:20:41.681Z,99.90
2018-07-13T03:23:12.221Z,99.90
2018-07-13T03:25:42.337Z,99.90
2018-07-13T03:28:12.316Z,99.90
2018-07-13T03:30:41.929Z,99.90
2018-07-13T03:33:11.869Z,99.90
2018-07-13T03:35:41.819Z,99.90
2018-07-13T03:38:11.885Z,99.90
2018-07-13T03:40:41.958Z,99.90
2018-07-13T03:43:11.644Z,99.90
2018-07-13T03:45:42.480Z,99.90
2018-07-13T03:48:11.947Z,99.90
2018-07-13T03:50:41.640Z,99.90
2018-07-13T16:41:26.123Z,66.40
2018-07-13T23:33:12.740Z,72.80
2018-07-13T23:35:42.656Z,74.50
2018-07-13T23:38:12.992Z,74.90
2018-07-13T23:40:42.736Z,75.40
2018-07-13T23:43:12.411Z,75.60
2018-07-13T23:45:42.021Z,75.90
2018-07-13T23:48:12.310Z,76.20
2018-07-13T23:50:41.836Z,76.60
2018-07-13T23:53:11.692Z,76.80
2018-07-13T23:55:41.367Z,77.00
2018-07-13T23:58:11.519Z,77.00
